Time;durP1;ratioP1;P1;durP2;ratioP2;P2;SDS_P1;SDS_P2;PMS_P1;PMS_P2;Temp;Humidity;BMP_temperature;BMP_pressure;BME280_temperature;BME280_humidity;BME280_pressure;Samples;Min_cycle;Max_cycle;Signal;HPM_P1;HPM_P2
2022/12/05 00:00:47;;;;;;;29.02;20.42;;;7.10;99.90;;;;;;2056441;28;20521;-70
2022/12/05 00:01:48;;;;;;;29.85;21.35;;;7.10;99.90;;;;;;2056234;28;20110;-70
2022/12/05 00:02:48;;;;;;;30.73;21.58;;;7.10;99.90;;;;;;2055905;28;20051;-70
2022/12/05 00:03:51;;;;;;;29.60;20.42;;;7.00;99.90;;;;;;2055254;28;20038;-70
2022/12/05 00:04:52;;;;;;;31.00;21.90;;;7.00;99.90;;;;;;2055402;28;20139;-70
2022/12/05 00:05:52;;;;;;;29.13;21.20;;;7.00;99.90;;;;;;2055386;28;20125;-70
2022/12/05 00:06:53;;;;;;;30.83;21.42;;;7.10;99.90;;;;;;2055305;28;20023;-70
2022/12/05 00:07:54;;;;;;;30.60;21.13;;;7.00;99.90;;;;;;2055305;28;20014;-68
2022/12/05 00:08:55;;;;;;;31.85;21.75;;;7.00;99.90;;;;;;2055609;28;20046;-70
2022/12/05 00:09:56;;;;;;;30.40;21.63;;;7.10;99.90;;;;;;2055547;28;20049;-70
2022/12/05 00:10:56;;;;;;;32.55;22.27;;;7.00;99.90;;;;;;2055646;28;20470;-70
2022/12/05 00:11:57;;;;;;;31.52;22.27;;;7.10;99.90;;;;;;2056328;28;20050;-70
2022/12/05 00:12:58;;;;;;;32.80;23.02;;;7.00;99.90;;;;;;2056283;28;20062;-70
2022/12/05 00:14:00;;;;;;;31.67;22.27;;;7.10;99.90;;;;;;2055361;28;20062;-70
2022/12/05 00:15:01;;;;;;;30.90;22.15;;;7.00;99.90;;;;;;2055600;28;20061;-70
2022/12/05 00:16:07;;;;;;;33.47;22.83;;;7.00;99.90;;;;;;2055254;28;20532;-70
2022/12/05 00:17:07;;;;;;;33.75;23.17;;;7.00;99.90;;;;;;2049662;28;20031;-70
2022/12/05 00:18:08;;;;;;;31.92;22.38;;;7.00;99.90;;;;;;2062628;28;20034;-70
2022/12/05 00:19:12;;;;;;;32.33;23.02;;;7.00;99.90;;;;;;2054670;28;20493;-70
2022/12/05 00:20:13;;;;;;;31.42;21.77;;;7.00;99.90;;;;;;2054666;28;20176;-70
2022/12/05 00:21:17;;;;;;;33.20;22.98;;;7.00;99.90;;;;;;2055530;28;20672;-70
2022/12/05 00:22:18;;;;;;;33.97;22.98;;;7.00;99.90;;;;;;2055281;28;20166;-70
2022/12/05 00:23:18;;;;;;;33.65;22.60;;;7.00;99.90;;;;;;2054659;28;20101;-70
2022/12/05 00:24:19;;;;;;;33.25;23.35;;;7.00;99.90;;;;;;2046541;29;20118;-70
2022/12/05 00:25:20;;;;;;;33.33;23.23;;;7.00;99.90;;;;;;2054897;28;20067;-70
2022/12/05 00:26:21;;;;;;;30.80;21.63;;;7.00;99.90;;;;;;2055171;28;20031;-70
2022/12/05 00:27:21;;;;;;;30.42;20.65;;;7.00;99.90;;;;;;2056302;28;20030;-70
2022/12/05 00:28:22;;;;;;;32.33;22.17;;;7.00;99.90;;;;;;2055281;28;20023;-71
2022/12/05 00:29:23;;;;;;;30.38;21.60;;;7.00;99.90;;;;;;2055420;28;20034;-70
2022/12/05 00:30:23;;;;;;;31.55;22.60;;;7.00;99.90;;;;;;2055378;28;20552;-70
2022/12/05 00:31:26;;;;;;;32.72;22.88;;;7.00;99.90;;;;;;2055306;28;20022;-70
2022/12/05 00:32:30;;;;;;;32.53;22.60;;;7.00;99.90;;;;;;2055313;28;20066;-70
2022/12/05 00:33:30;;;;;;;31.95;22.33;;;7.00;99.90;;;;;;2055507;28;20054;-70
2022/12/05 00:34:31;;;;;;;31.75;21.92;;;7.10;99.90;;;;;;2055153;28;20754;-70
2022/12/05 00:35:32;;;;;;;33.17;22.48;;;7.10;99.90;;;;;;2055520;28;20093;-71
2022/12/05 00:36:34;;;;;;;33.17;22.65;;;7.10;99.90;;;;;;2062380;28;20022;-70
2022/12/05 00:37:35;;;;;;;33.10;22.67;;;7.10;99.90;;;;;;2062491;28;20026;-70
2022/12/05 00:38:36;;;;;;;31.50;22.52;;;7.10;99.90;;;;;;2054650;28;20045;-70
2022/12/05 00:39:37;;;;;;;34.40;22.35;;;7.10;99.90;;;;;;2054516;28;20106;-69
2022/12/05 00:40:37;;;;;;;31.15;22.40;;;7.10;99.90;;;;;;2055332;28;20606;-70
2022/12/05 00:41:38;;;;;;;32.55;22.38;;;7.10;99.90;;;;;;2055139;28;20027;-70
2022/12/05 00:42:39;;;;;;;29.60;20.88;;;7.10;99.90;;;;;;2055241;28;20030;-70
2022/12/05 00:43:41;;;;;;;31.20;22.10;;;7.10;99.90;;;;;;2054720;28;20049;-70
2022/12/05 00:44:41;;;;;;;31.48;22.55;;;7.10;99.90;;;;;;2053880;28;20026;-70
2022/12/05 00:45:42;;;;;;;34.20;23.63;;;7.00;99.90;;;;;;2054528;28;20049;-70
2022/12/05 00:46:43;;;;;;;32.40;22.83;;;7.00;99.90;;;;;;2047404;28;20031;-70
2022/12/05 00:47:43;;;;;;;29.92;21.58;;;7.10;99.90;;;;;;2046772;29;20051;-70
2022/12/05 00:48:44;;;;;;;31.92;22.02;;;7.10;99.90;;;;;;2046746;28;20019;-70
2022/12/05 00:49:45;;;;;;;29.55;21.05;;;7.10;99.90;;;;;;2047286;28;20891;-70
2022/12/05 00:50:46;;;;;;;29.92;20.83;;;7.00;99.90;;;;;;2047221;29;20450;-70
2022/12/05 00:51:47;;;;;;;31.83;22.15;;;7.00;99.90;;;;;;2047400;29;20037;-71
2022/12/05 00:52:48;;;;;;;33.30;22.52;;;7.10;99.90;;;;;;2047113;29;20065;-70
2022/12/05 00:53:49;;;;;;;31.92;21.55;;;7.00;99.90;;;;;;2047360;29;20386;-71
2022/12/05 00:54:50;;;;;;;30.42;21.35;;;7.10;99.90;;;;;;2047161;28;20159;-71
2022/12/05 00:55:50;;;;;;;29.38;20.63;;;7.10;99.90;;;;;;2046998;28;20422;-72
2022/12/05 00:56:55;;;;;;;30.02;20.98;;;7.10;99.90;;;;;;2047172;29;20059;-70
2022/12/05 00:57:55;;;;;;;28.98;20.60;;;7.10;99.90;;;;;;2047274;29;20032;-70
2022/12/05 00:58:57;;;;;;;29.40;20.67;;;7.10;99.90;;;;;;2047240;29;20263;-70
2022/12/05 00:59:58;;;;;;;28.80;20.08;;;7.10;99.90;;;;;;2055414;28;20134;-70
2022/12/05 01:01:10;;;;;;;29.98;21.25;;;7.10;99.90;;;;;;2055264;28;20490;-70
2022/12/05 01:02:10;;;;;;;31.63;21.83;;;7.00;99.90;;;;;;2055481;28;20552;-70
2022/12/05 01:03:11;;;;;;;33.75;23.08;;;7.10;99.90;;;;;;2054615;28;20027;-71
2022/12/05 01:04:18;;;;;;;31.65;22.30;;;7.10;99.90;;;;;;2054492;28;20045;-70
2022/12/05 01:05:18;;;;;;;33.67;22.88;;;7.00;99.90;;;;;;2062801;28;20026;-70
2022/12/05 01:06:20;;;;;;;31.80;21.75;;;7.10;99.90;;;;;;2062550;28;20065;-70
2022/12/05 01:07:21;;;;;;;34.55;23.35;;;7.10;99.90;;;;;;2055316;28;20389;-70
2022/12/05 01:08:21;;;;;;;32.80;22.65;;;7.00;99.90;;;;;;2055496;28;20058;-70
2022/12/05 01:09:23;;;;;;;31.45;21.48;;;7.10;99.90;;;;;;2054816;28;20033;-70
2022/12/05 01:10:23;;;;;;;32.20;22.42;;;7.00;99.90;;;;;;2054548;28;20038;-68
2022/12/05 01:11:25;;;;;;;31.20;21.38;;;7.00;99.90;;;;;;2062575;28;20030;-68
2022/12/05 01:12:27;;;;;;;30.08;21.20;;;7.00;99.90;;;;;;2061934;28;20037;-69
2022/12/05 01:13:28;;;;;;;33.10;22.52;;;7.00;99.90;;;;;;2052246;28;20022;-68
2022/12/05 01:14:29;;;;;;;32.10;22.45;;;7.10;99.90;;;;;;2046283;28;20422;-68
2022/12/05 01:15:29;;;;;;;32.17;22.67;;;7.10;99.90;;;;;;2046616;28;20031;-68
2022/12/05 01:16:35;;;;;;;32.17;22.35;;;7.10;99.90;;;;;;2054877;28;20086;-68
2022/12/05 01:17:36;;;;;;;32.38;21.63;;;7.10;99.90;;;;;;2054349;28;20035;-70
2022/12/05 01:18:37;;;;;;;30.50;21.02;;;7.10;99.90;;;;;;2054367;28;20034;-70
2022/12/05 01:19:37;;;;;;;32.30;21.75;;;7.10;99.90;;;;;;2054969;28;20466;-70
2022/12/05 01:20:39;;;;;;;33.22;23.08;;;7.10;99.90;;;;;;2055077;28;20389;-70
2022/12/05 01:21:40;;;;;;;35.03;23.80;;;7.10;99.90;;;;;;2054545;28;20027;-68
2022/12/05 01:22:41;;;;;;;33.22;22.60;;;7.10;99.90;;;;;;2054627;28;20030;-69
2022/12/05 01:23:42;;;;;;;33.17;23.13;;;7.10;99.90;;;;;;2055238;28;20041;-67
2022/12/05 01:24:43;;;;;;;33.95;23.30;;;7.10;99.90;;;;;;2054522;28;20031;-70
2022/12/05 01:25:46;;;;;;;36.10;23.73;;;7.10;99.90;;;;;;2054272;28;20034;-70
2022/12/05 01:26:47;;;;;;;35.67;24.05;;;7.10;99.90;;;;;;2055146;28;20027;-70
2022/12/05 01:27:47;;;;;;;32.60;22.48;;;7.10;99.90;;;;;;2055074;28;20027;-70
2022/12/05 01:28:48;;;;;;;32.85;23.00;;;7.10;99.90;;;;;;2054433;28;20042;-70
2022/12/05 01:29:49;;;;;;;35.33;23.63;;;7.10;99.90;;;;;;2054273;28;20085;-69
2022/12/05 01:30:50;;;;;;;36.13;23.75;;;7.10;99.90;;;;;;2055213;28;20110;-70
2022/12/05 01:31:51;;;;;;;33.42;23.05;;;7.10;99.90;;;;;;2054557;28;20050;-70
2022/12/05 01:32:52;;;;;;;30.40;21.33;;;7.10;99.90;;;;;;2054478;28;20109;-69
2022/12/05 01:33:54;;;;;;;36.03;24.27;;;7.10;99.90;;;;;;2054390;28;20042;-69
2022/12/05 01:34:55;;;;;;;34.55;23.60;;;7.10;99.90;;;;;;2054954;28;20047;-70
2022/12/05 01:35:56;;;;;;;34.13;22.50;;;7.10;99.90;;;;;;2054732;28;20489;-70
2022/12/05 01:36:56;;;;;;;36.58;24.60;;;7.10;99.90;;;;;;2055195;28;20031;-69
2022/12/05 01:37:57;;;;;;;34.70;22.77;;;7.10;99.90;;;;;;2055043;28;20157;-70
2022/12/05 01:38:58;;;;;;;33.25;22.77;;;7.10;99.90;;;;;;2055116;28;20030;-70
2022/12/05 01:39:59;;;;;;;31.90;22.00;;;7.10;99.90;;;;;;2054890;28;20097;-70
2022/12/05 01:41:02;;;;;;;31.25;20.98;;;7.10;99.90;;;;;;2054927;28;20035;-69
2022/12/05 01:42:04;;;;;;;36.55;24.75;;;7.10;99.90;;;;;;2055021;28;20058;-69
2022/12/05 01:43:13;;;;;;;35.88;23.67;;;7.10;99.90;;;;;;2054940;28;20132;-70
2022/12/05 01:44:14;;;;;;;33.28;22.65;;;7.10;99.90;;;;;;2054737;28;20110;-69
2022/12/05 01:45:21;;;;;;;32.97;23.08;;;7.10;99.90;;;;;;2054888;28;20037;-69
2022/12/05 01:46:22;;;;;;;35.67;23.60;;;7.10;99.90;;;;;;2054872;28;20031;-69
2022/12/05 01:47:25;;;;;;;32.60;22.02;;;7.10;99.90;;;;;;2054936;28;20033;-70
2022/12/05 01:48:32;;;;;;;33.75;22.65;;;7.10;99.90;;;;;;2054842;28;20482;-70
2022/12/05 01:49:37;;;;;;;32.15;22.25;;;7.10;99.90;;;;;;2055114;28;20450;-69
2022/12/05 01:50:38;;;;;;;33.83;21.60;;;7.10;99.90;;;;;;2054950;28;20045;-70
2022/12/05 01:51:44;;;;;;;32.20;21.92;;;7.10;99.90;;;;;;2054237;28;20045;-70
2022/12/05 01:52:44;;;;;;;29.92;20.45;;;7.10;99.90;;;;;;2054475;28;20058;-70
2022/12/05 01:53:45;;;;;;;32.15;21.42;;;7.10;99.90;;;;;;2054984;28;20030;-70
2022/12/05 01:54:49;;;;;;;32.42;21.73;;;7.10;99.90;;;;;;2054937;28;20029;-69
2022/12/05 01:55:50;;;;;;;28.45;19.77;;;7.10;99.90;;;;;;2055752;28;20026;-69
2022/12/05 01:57:01;;;;;;;29.33;20.17;;;7.10;99.90;;;;;;2056372;28;20516;-69
2022/12/05 01:58:07;;;;;;;27.42;18.98;;;7.10;99.90;;;;;;2057009;28;20027;-70
2022/12/05 01:59:10;;;;;;;28.20;19.35;;;7.10;99.90;;;;;;2057265;28;20038;-70
2022/12/05 02:00:15;;;;;;;29.98;19.88;;;7.10;99.90;;;;;;2057073;28;20093;-70
2022/12/05 02:01:17;;;;;;;29.58;20.38;;;7.10;99.90;;;;;;2057677;28;20026;-70
2022/12/05 02:02:18;;;;;;;31.05;20.83;;;7.10;99.90;;;;;;2057343;28;20401;-70
2022/12/05 02:03:20;;;;;;;36.38;23.90;;;7.10;99.90;;;;;;2057252;28;20031;-69
2022/12/05 02:04:22;;;;;;;33.47;21.90;;;7.10;99.90;;;;;;2057555;28;20039;-70
2022/12/05 02:05:30;;;;;;;38.13;24.40;;;7.10;99.90;;;;;;2064933;28;20469;-70
2022/12/05 02:06:31;;;;;;;36.47;24.48;;;7.10;99.90;;;;;;2063517;28;20072;-68
2022/12/05 02:07:33;;;;;;;34.28;22.38;;;7.10;99.90;;;;;;2057262;28;20046;-70
2022/12/05 02:08:35;;;;;;;32.28;22.10;;;7.10;99.90;;;;;;2057262;28;20031;-70
2022/12/05 02:09:35;;;;;;;33.00;21.90;;;7.10;99.90;;;;;;2059028;28;20034;-68
2022/12/05 02:10:52;;;;;;;36.80;24.98;;;7.10;99.90;;;;;;2057276;28;20030;-71
2022/12/05 02:11:59;;;;;;;34.55;23.13;;;7.10;99.90;;;;;;2048744;28;20019;-69
2022/12/05 02:13:23;;;;;;;35.83;23.88;;;7.10;99.90;;;;;;2048321;28;20070;-68
2022/12/05 02:14:29;;;;;;;34.72;23.08;;;7.10;99.90;;;;;;2047846;28;20035;-71
2022/12/05 02:15:45;;;;;;;34.67;22.85;;;7.10;99.90;;;;;;2040846;29;20031;-70
2022/12/05 02:16:45;;;;;;;36.35;23.90;;;7.10;99.90;;;;;;2048584;28;20054;-67
2022/12/05 02:17:46;;;;;;;38.20;25.35;;;7.10;99.90;;;;;;2049119;28;20382;-70
2022/12/05 02:19:20;;;;;;;36.40;23.95;;;7.10;99.90;;;;;;2048529;29;20028;-70
2022/12/05 02:20:45;;;;;;;36.15;23.55;;;7.10;99.90;;;;;;2048457;28;20598;-70
2022/12/05 02:22:33;;;;;;;34.90;23.50;;;7.10;99.90;;;;;;2048396;28;20727;-70
2022/12/05 02:23:59;;;;;;;34.05;22.23;;;7.10;99.90;;;;;;2054973;28;20062;-71
2022/12/05 02:25:35;;;;;;;34.53;22.63;;;7.10;99.90;;;;;;2055090;28;20042;-70
2022/12/05 02:26:38;;;;;;;34.45;22.70;;;7.10;99.90;;;;;;2024854;29;20491;-70
2022/12/05 02:28:07;;;;;;;39.63;25.38;;;7.10;99.90;;;;;;2023606;29;20040;-70
2022/12/05 02:29:39;;;;;;;34.30;22.77;;;7.10;99.90;;;;;;2043699;29;20055;-70
2022/12/05 02:30:53;;;;;;;36.05;23.92;;;7.10;99.90;;;;;;2054158;28;20744;-70
2022/12/05 02:32:02;;;;;;;32.83;22.58;;;7.00;99.90;;;;;;2048265;28;20752;-70
2022/12/05 02:33:09;;;;;;;33.33;22.25;;;7.00;99.90;;;;;;2063663;28;20034;-70
2022/12/05 02:34:21;;;;;;;31.77;21.40;;;7.00;99.90;;;;;;2057423;28;20353;-70
2022/12/05 02:35:36;;;;;;;37.60;24.05;;;7.00;99.90;;;;;;2055813;28;20178;-70
2022/12/05 02:36:51;;;;;;;34.10;22.38;;;7.00;99.90;;;;;;2070286;28;20117;-70
2022/12/05 02:38:11;;;;;;;35.03;23.33;;;7.10;99.90;;;;;;2068301;28;20111;-70
2022/12/05 02:39:42;;;;;;;32.53;21.73;;;7.10;99.90;;;;;;2056419;28;20407;-69
2022/12/05 02:41:15;;;;;;;29.88;20.45;;;7.10;99.90;;;;;;2056261;28;20089;-70
2022/12/05 02:42:50;;;;;;;34.53;22.80;;;7.00;99.90;;;;;;2056320;28;20023;-70
2022/12/05 02:44:05;;;;;;;31.10;20.55;;;7.10;99.90;;;;;;2055831;28;20045;-70
2022/12/05 02:45:12;;;;;;;30.80;21.30;;;7.00;99.90;;;;;;2056148;28;20035;-70
2022/12/05 02:46:19;;;;;;;33.35;21.42;;;7.10;99.90;;;;;;2056216;28;20039;-70
2022/12/05 02:47:25;;;;;;;28.40;19.63;;;7.10;99.90;;;;;;2057409;28;20480;-70
2022/12/05 02:48:27;;;;;;;30.48;19.35;;;7.00;99.90;;;;;;2057678;28;20035;-70
2022/12/05 02:49:35;;;;;;;31.02;21.13;;;7.10;99.90;;;;;;2057573;28;20037;-70
2022/12/05 02:50:37;;;;;;;29.90;20.42;;;7.10;99.90;;;;;;2057410;28;20030;-68
2022/12/05 02:51:43;;;;;;;30.33;19.83;;;7.10;99.90;;;;;;2058857;28;20049;-70
2022/12/05 02:52:47;;;;;;;25.85;18.33;;;7.10;99.90;;;;;;2058974;28;20035;-70
2022/12/05 02:53:49;;;;;;;26.35;18.25;;;7.10;99.90;;;;;;2058632;28;20066;-70
2022/12/05 02:54:53;;;;;;;28.20;18.98;;;7.10;99.90;;;;;;2060134;28;20182;-70
2022/12/05 02:55:55;;;;;;;28.98;19.08;;;7.10;99.90;;;;;;2058967;28;20027;-71
2022/12/05 02:56:58;;;;;;;28.52;18.92;;;7.00;99.90;;;;;;2056715;28;20627;-70
2022/12/05 02:58:06;;;;;;;34.63;22.45;;;7.10;99.90;;;;;;2056239;28;20065;-70
2022/12/05 02:59:06;;;;;;;31.83;21.35;;;7.00;99.90;;;;;;2063613;28;20066;-70
2022/12/05 03:00:08;;;;;;;32.92;21.85;;;7.10;99.90;;;;;;2055156;28;20035;-70
2022/12/05 03:01:09;;;;;;;32.38;22.15;;;7.10;99.90;;;;;;2055389;28;20043;-70
2022/12/05 03:02:29;;;;;;;31.27;21.60;;;7.00;99.90;;;;;;2056039;28;20073;-70
2022/12/05 03:03:31;;;;;;;30.00;20.25;;;7.10;99.90;;;;;;2056193;28;20055;-71
2022/12/05 03:04:32;;;;;;;29.55;20.13;;;7.10;99.90;;;;;;2063292;28;20061;-70
2022/12/05 03:05:51;;;;;;;27.80;19.60;;;7.00;99.90;;;;;;2066303;28;20026;-70
2022/12/05 03:07:07;;;;;;;27.10;18.75;;;7.10;99.90;;;;;;2054616;28;20149;-69
2022/12/05 03:08:16;;;;;;;28.13;18.88;;;7.10;99.90;;;;;;2055289;28;20065;-69
2022/12/05 03:09:36;;;;;;;25.75;17.95;;;7.10;99.90;;;;;;2056039;28;20045;-69
2022/12/05 03:10:40;;;;;;;31.52;20.20;;;7.10;99.90;;;;;;2056081;28;20470;-69
2022/12/05 03:11:47;;;;;;;29.30;20.10;;;7.10;99.90;;;;;;2055919;28;20023;-70
2022/12/05 03:12:54;;;;;;;27.75;19.23;;;7.10;99.90;;;;;;2055936;28;20373;-69
2022/12/05 03:13:59;;;;;;;25.83;18.08;;;7.10;99.90;;;;;;2055989;28;20045;-69
2022/12/05 03:15:24;;;;;;;31.67;21.20;;;7.10;99.90;;;;;;2055894;28;20112;-70
2022/12/05 03:16:38;;;;;;;30.42;19.95;;;7.00;99.90;;;;;;2055522;28;20106;-69
2022/12/05 03:17:46;;;;;;;29.83;19.95;;;7.10;99.90;;;;;;2055777;28;20025;-70
2022/12/05 03:18:53;;;;;;;27.73;19.40;;;7.00;99.90;;;;;;2055863;28;20027;-69
2022/12/05 03:20:10;;;;;;;29.67;19.77;;;7.00;99.90;;;;;;2055854;28;20053;-69
2022/12/05 03:21:24;;;;;;;30.27;20.17;;;7.00;99.90;;;;;;2055992;28;20103;-67
2022/12/05 03:22:32;;;;;;;31.05;21.02;;;7.10;99.90;;;;;;2055825;28;20160;-67
2022/12/05 03:23:38;;;;;;;28.88;19.40;;;7.00;99.90;;;;;;2055655;28;20022;-69
2022/12/05 03:24:40;;;;;;;29.98;19.92;;;7.00;99.90;;;;;;2055865;28;20034;-67
2022/12/05 03:26:01;;;;;;;31.52;20.90;;;7.00;99.90;;;;;;2054677;28;20126;-69
2022/12/05 03:27:26;;;;;;;28.23;19.48;;;7.00;99.90;;;;;;2048963;28;20059;-69
2022/12/05 03:28:56;;;;;;;29.92;19.35;;;7.00;99.90;;;;;;2055916;28;20030;-70
2022/12/05 03:30:06;;;;;;;31.25;20.10;;;7.00;99.90;;;;;;2055071;28;20041;-68
2022/12/05 03:31:12;;;;;;;29.58;19.80;;;7.00;99.90;;;;;;2059660;28;20034;-68
2022/12/05 03:32:21;;;;;;;29.92;19.58;;;7.00;99.90;;;;;;2059333;28;20040;-68
2022/12/05 03:33:31;;;;;;;30.08;19.27;;;7.00;99.90;;;;;;2054552;28;20086;-68
2022/12/05 03:34:44;;;;;;;28.33;19.10;;;7.00;99.90;;;;;;2056977;28;20030;-69
2022/12/05 03:36:16;;;;;;;29.90;21.10;;;7.00;99.90;;;;;;2064639;28;20038;-68
2022/12/05 03:37:26;;;;;;;30.13;20.13;;;7.00;99.90;;;;;;2063869;28;20035;-68
2022/12/05 03:38:34;;;;;;;27.02;18.58;;;7.00;99.90;;;;;;2062005;28;20031;-69
2022/12/05 03:39:38;;;;;;;33.42;21.70;;;7.00;99.90;;;;;;2065165;28;20045;-68
2022/12/05 03:40:41;;;;;;;29.77;20.02;;;7.00;99.90;;;;;;2063002;28;20026;-68
2022/12/05 03:41:48;;;;;;;28.90;19.92;;;7.00;99.90;;;;;;2055664;28;20033;-68
2022/12/05 03:43:04;;;;;;;28.98;19.58;;;7.00;99.90;;;;;;2055859;28;20354;-68
2022/12/05 03:44:22;;;;;;;30.00;20.70;;;7.00;99.90;;;;;;2055446;28;20122;-68
2022/12/05 03:45:32;;;;;;;32.50;20.33;;;7.00;99.90;;;;;;2054850;28;20108;-68
2022/12/05 03:46:38;;;;;;;29.27;19.45;;;7.00;99.90;;;;;;2054797;28;20023;-69
2022/12/05 03:47:55;;;;;;;28.40;19.00;;;7.00;99.90;;;;;;2055627;28;20035;-68
2022/12/05 03:49:26;;;;;;;30.95;20.40;;;7.00;99.90;;;;;;2048537;28;20035;-68
2022/12/05 03:50:28;;;;;;;;;;;7.00;99.90;;;;;;2054076;28;20441;-68
2022/12/05 03:51:41;;;;;;;30.08;19.48;;;7.00;99.90;;;;;;2055655;28;19910;-68
2022/12/05 03:52:46;;;;;;;27.83;18.65;;;7.00;99.90;;;;;;2053843;28;20027;-69
2022/12/05 03:53:56;;;;;;;27.45;19.33;;;7.00;99.90;;;;;;2054900;28;20026;-68
2022/12/05 03:55:00;;;;;;;27.15;18.33;;;7.00;99.90;;;;;;2055771;28;20466;-68
2022/12/05 03:56:11;;;;;;;24.00;17.23;;;7.00;99.90;;;;;;2055288;28;20093;-68
2022/12/05 03:57:17;;;;;;;25.77;17.65;;;7.00;99.90;;;;;;2055542;28;20019;-69
2022/12/05 03:58:26;;;;;;;27.92;19.50;;;7.00;99.90;;;;;;2055640;28;20065;-68
2022/12/05 03:59:33;;;;;;;25.50;17.73;;;7.00;99.90;;;;;;2062795;28;20030;-68
2022/12/05 04:00:38;;;;;;;25.63;17.45;;;7.00;99.90;;;;;;2062344;28;20109;-68
2022/12/05 04:01:41;;;;;;;29.25;19.50;;;6.90;99.90;;;;;;2059309;28;20027;-69
2022/12/05 04:02:48;;;;;;;26.63;18.20;;;6.90;99.90;;;;;;2064877;28;20040;-69
2022/12/05 04:03:57;;;;;;;27.17;18.92;;;7.00;99.90;;;;;;2059983;28;20031;-69
2022/12/05 04:05:12;;;;;;;24.55;17.25;;;6.90;99.90;;;;;;2058135;28;20557;-69
2022/12/05 04:06:24;;;;;;;27.50;18.98;;;7.00;99.90;;;;;;2059782;28;20066;-69
2022/12/05 04:07:28;;;;;;;28.65;18.45;;;7.00;99.90;;;;;;2055656;28;20111;-68
2022/12/05 04:08:37;;;;;;;25.08;17.63;;;7.00;99.90;;;;;;2055239;28;20087;-69
2022/12/05 04:09:51;;;;;;;27.05;18.50;;;7.00;99.90;;;;;;2055148;28;20030;-68
2022/12/05 04:10:57;;;;;;;25.98;18.17;;;7.00;99.90;;;;;;2055764;28;20041;-68
2022/12/05 04:12:02;;;;;;;26.70;18.70;;;6.90;99.90;;;;;;2055714;28;20070;-69
2022/12/05 04:13:16;;;;;;;24.40;17.48;;;7.00;99.90;;;;;;2055075;28;20588;-69
2022/12/05 04:14:40;;;;;;;27.48;19.10;;;7.00;99.90;;;;;;2055085;28;20023;-68
2022/12/05 04:17:08;;;;;;;24.75;17.33;;;7.00;99.90;;;;;;2055061;28;20034;-68
2022/12/05 04:18:11;;;;;;;25.05;17.02;;;7.00;99.90;;;;;;2055317;28;20122;-68
2022/12/05 04:22:18;;;;;;;27.08;17.67;;;7.00;99.90;;;;;;2054841;28;20078;-69
2022/12/05 04:23:19;;;;;;;24.60;17.20;;;7.00;99.90;;;;;;2055087;28;20037;-69
2022/12/05 04:26:30;;;;;;;26.60;17.92;;;7.00;99.90;;;;;;2055376;28;20042;-69
2022/12/05 04:27:39;;;;;;;24.98;17.13;;;7.00;99.90;;;;;;2056693;28;20556;-69
2022/12/05 04:28:50;;;;;;;23.80;16.92;;;7.00;99.90;;;;;;2067729;28;20029;-69
2022/12/05 04:30:11;;;;;;;23.80;17.60;;;7.00;99.90;;;;;;2054229;28;20057;-69
2022/12/05 04:31:31;;;;;;;25.50;17.73;;;7.00;99.90;;;;;;2054396;28;20137;-69
2022/12/05 04:32:59;;;;;;;27.90;19.08;;;7.00;99.90;;;;;;2054926;28;20229;-69
2022/12/05 04:34:04;;;;;;;26.98;18.80;;;6.90;99.90;;;;;;2055456;28;20030;-69
2022/12/05 04:35:12;;;;;;;23.98;17.38;;;6.90;99.90;;;;;;2055505;28;20046;-69
2022/12/05 04:36:19;;;;;;;23.60;16.85;;;6.90;99.90;;;;;;2054287;28;20122;-69
2022/12/05 04:37:23;;;;;;;27.52;19.58;;;7.00;99.90;;;;;;2053030;28;20134;-69
2022/12/05 04:38:49;;;;;;;25.90;18.50;;;7.00;99.90;;;;;;2054639;28;20442;-69
2022/12/05 04:39:58;;;;;;;26.38;18.15;;;6.90;99.90;;;;;;2049737;28;20053;-69
2022/12/05 04:41:05;;;;;;;25.95;18.25;;;6.90;99.90;;;;;;2054886;28;20066;-69
2022/12/05 04:42:09;;;;;;;26.92;18.77;;;7.00;99.90;;;;;;2054661;28;20098;-69
2022/12/05 04:43:13;;;;;;;24.10;17.58;;;6.90;99.90;;;;;;2054825;28;20058;-69
2022/12/05 04:44:17;;;;;;;27.67;18.80;;;6.90;99.90;;;;;;2055213;28;20562;-69
2022/12/05 04:45:20;;;;;;;26.25;18.25;;;6.90;99.90;;;;;;2055259;28;20441;-69
2022/12/05 04:46:23;;;;;;;22.95;16.48;;;6.90;99.90;;;;;;2055135;28;20549;-69
2022/12/05 04:47:29;;;;;;;21.58;16.00;;;6.90;99.90;;;;;;2054518;28;20027;-69
2022/12/05 04:48:32;;;;;;;24.63;17.00;;;6.90;99.90;;;;;;2054688;28;20585;-69
2022/12/05 04:49:34;;;;;;;21.02;15.32;;;6.90;99.90;;;;;;2055308;28;20080;-69
2022/12/05 04:50:38;;;;;;;25.23;17.90;;;6.90;99.90;;;;;;2055378;28;20804;-69
2022/12/05 04:51:41;;;;;;;23.80;16.88;;;6.90;99.90;;;;;;2055187;28;20097;-69
2022/12/05 04:52:47;;;;;;;26.10;17.92;;;7.00;99.90;;;;;;2055389;28;20015;-69
2022/12/05 04:53:53;;;;;;;23.70;17.08;;;6.90;99.90;;;;;;2055397;28;20027;-69
2022/12/05 04:55:02;;;;;;;25.60;17.83;;;7.00;99.90;;;;;;2055279;28;20461;-69
2022/12/05 04:56:04;;;;;;;24.15;17.73;;;6.90;99.90;;;;;;2055485;28;20031;-70
2022/12/05 04:57:12;;;;;;;22.95;16.85;;;6.90;99.90;;;;;;2055373;28;20031;-70
2022/12/05 04:58:21;;;;;;;26.90;18.83;;;6.90;99.90;;;;;;2055479;28;20023;-69
2022/12/05 04:59:22;;;;;;;27.85;19.27;;;6.90;99.90;;;;;;2055113;28;20593;-69
2022/12/05 05:00:23;;;;;;;25.45;18.27;;;6.90;99.90;;;;;;2054384;28;20038;-69
2022/12/05 05:01:36;;;;;;;28.38;19.83;;;6.90;99.90;;;;;;2054426;28;20098;-69
2022/12/05 05:02:51;;;;;;;27.13;18.50;;;6.90;99.90;;;;;;2054993;28;20400;-69
2022/12/05 05:04:06;;;;;;;27.25;19.08;;;6.90;99.90;;;;;;2055296;28;20068;-69
2022/12/05 05:05:10;;;;;;;27.98;18.75;;;7.00;99.90;;;;;;2055269;28;20042;-69
2022/12/05 05:06:12;;;;;;;25.95;18.20;;;7.00;99.90;;;;;;2054960;28;20026;-69
2022/12/05 05:07:13;;;;;;;24.88;18.00;;;7.00;99.90;;;;;;2055270;28;20023;-69
2022/12/05 05:08:19;;;;;;;25.70;18.30;;;7.00;99.90;;;;;;2054596;28;20451;-69
2022/12/05 05:09:19;;;;;;;24.05;16.67;;;7.00;99.90;;;;;;2055024;28;20106;-69
2022/12/05 05:10:36;;;;;;;25.70;18.27;;;7.00;99.90;;;;;;2055496;28;20042;-69
2022/12/05 05:11:37;;;;;;;24.25;17.40;;;7.00;99.90;;;;;;2055738;28;20504;-70
2022/12/05 05:12:37;;;;;;;24.10;17.45;;;7.00;99.90;;;;;;2055271;28;20044;-69
2022/12/05 05:13:39;;;;;;;25.15;16.77;;;7.00;99.90;;;;;;2055243;28;20027;-69
2022/12/05 05:14:39;;;;;;;24.00;16.30;;;7.00;99.90;;;;;;2055238;28;20018;-69
2022/12/05 05:15:40;;;;;;;23.50;16.17;;;7.00;99.90;;;;;;2055186;28;20027;-69
2022/12/05 05:16:42;;;;;;;22.65;15.88;;;7.10;99.90;;;;;;2055364;28;20026;-69
2022/12/05 05:17:43;;;;;;;21.50;15.45;;;7.10;99.90;;;;;;2055353;28;20393;-69
2022/12/05 05:18:45;;;;;;;22.08;16.20;;;7.10;99.90;;;;;;2054482;28;20023;-69
2022/12/05 05:19:45;;;;;;;23.33;16.50;;;7.00;99.90;;;;;;2038662;28;20043;-69
2022/12/05 05:20:46;;;;;;;22.23;16.55;;;7.00;99.90;;;;;;2046607;29;20030;-69
2022/12/05 05:21:47;;;;;;;24.55;17.52;;;7.00;99.90;;;;;;2055015;28;20155;-69
2022/12/05 05:22:56;;;;;;;23.63;16.73;;;7.00;99.90;;;;;;2055203;28;20019;-69
2022/12/05 05:23:58;;;;;;;21.88;15.32;;;7.10;99.90;;;;;;2048193;28;20065;-69
2022/12/05 05:24:59;;;;;;;23.02;16.33;;;7.10;99.90;;;;;;2063683;28;20634;-69
2022/12/05 05:25:59;;;;;;;23.58;15.82;;;7.00;99.90;;;;;;2070628;28;20029;-69
2022/12/05 05:27:00;;;;;;;21.48;15.30;;;7.10;99.90;;;;;;2055121;28;20023;-69
2022/12/05 05:28:01;;;;;;;22.75;16.08;;;7.10;99.90;;;;;;2054542;28;20030;-69
2022/12/05 05:29:03;;;;;;;20.35;15.15;;;7.10;99.90;;;;;;2054518;28;20077;-70
2022/12/05 05:30:04;;;;;;;26.00;16.73;;;7.10;99.90;;;;;;2055170;28;20041;-69
2022/12/05 05:31:05;;;;;;;25.63;16.02;;;7.10;99.90;;;;;;2056009;28;20034;-69
2022/12/05 05:32:05;;;;;;;22.35;15.88;;;7.10;99.90;;;;;;2056132;28;20114;-69
2022/12/05 05:33:06;;;;;;;23.30;17.15;;;7.10;99.90;;;;;;2056924;28;20031;-69
2022/12/05 05:34:08;;;;;;;25.38;17.48;;;7.10;99.90;;;;;;2056705;28;20035;-70
2022/12/05 05:35:10;;;;;;;23.92;16.58;;;7.10;99.90;;;;;;2056738;28;20045;-69
2022/12/05 05:36:12;;;;;;;21.77;16.02;;;7.10;99.90;;;;;;2055644;28;20031;-69
2022/12/05 05:37:13;;;;;;;23.42;15.15;;;7.10;99.90;;;;;;2055909;28;20130;-69
2022/12/05 05:38:14;;;;;;;25.75;16.77;;;7.10;99.90;;;;;;2056621;28;20637;-71
2022/12/05 05:39:15;;;;;;;24.30;15.70;;;7.10;99.90;;;;;;2056113;28;20124;-69
2022/12/05 05:40:16;;;;;;;28.23;16.90;;;7.10;99.90;;;;;;2055671;28;20034;-69
2022/12/05 05:41:29;;;;;;;26.17;17.45;;;7.10;99.90;;;;;;2055913;28;20026;-68
2022/12/05 05:42:29;;;;;;;25.25;15.82;;;7.20;99.90;;;;;;2056590;28;20022;-68
2022/12/05 05:43:30;;;;;;;22.90;16.08;;;7.20;99.90;;;;;;2055901;28;20014;-69
2022/12/05 05:44:31;;;;;;;23.35;15.63;;;7.20;99.90;;;;;;2055467;28;20031;-68
2022/12/05 05:45:32;;;;;;;23.02;15.80;;;7.20;99.90;;;;;;2055440;28;20038;-68
2022/12/05 05:46:34;;;;;;;24.25;17.33;;;7.20;99.90;;;;;;2055615;28;20094;-68